sensor_id;sensor_type;location;lat;lon;timestamp;pressure;altitude;pressure_sealevel;temperature;humidity
21730;BME280;11027;51.030;13.812;2023-02-22T00:00:41;100284.63;;;10.99;68.59
21730;BME280;11027;51.030;13.812;2023-02-22T00:03:12;100289.41;;;10.97;68.58
21730;BME280;11027;51.030;13.812;2023-02-22T00:05:40;100291.47;;;10.95;68.67
21730;BME280;11027;51.030;13.812;2023-02-22T00:08:09;100288.06;;;10.93;68.94
21730;BME280;11027;51.030;13.812;2023-02-22T00:10:35;100294.53;;;10.92;68.88
21730;BME280;11027;51.030;13.812;2023-02-22T00:13:03;100288.41;;;10.90;69.07
21730;BME280;11027;51.030;13.812;2023-02-22T00:15:30;100280.91;;;10.92;68.83
21730;BME280;11027;51.030;13.812;2023-02-22T00:17:55;100291.47;;;10.95;68.87
21730;BME280;11027;51.030;13.812;2023-02-22T00:20:21;100286.00;;;10.95;68.82
21730;BME280;11027;51.030;13.812;2023-02-22T00:22:48;100290.47;;;10.88;68.87
21730;BME280;11027;51.030;13.812;2023-02-22T00:25:16;100280.94;;;10.84;69.07
21730;BME280;11027;51.030;13.812;2023-02-22T00:27:42;100279.63;;;10.80;69.37
21730;BME280;11027;51.030;13.812;2023-02-22T00:30:13;100278.66;;;10.73;69.44
21730;BME280;11027;51.030;13.812;2023-02-22T00:32:39;100278.69;;;10.65;69.50
21730;BME280;11027;51.030;13.812;2023-02-22T00:35:04;100275.59;;;10.68;69.53
21730;BME280;11027;51.030;13.812;2023-02-22T00:37:32;100280.03;;;10.69;69.64
21730;BME280;11027;51.030;13.812;2023-02-22T00:39:59;100276.66;;;10.67;69.72
21730;BME280;11027;51.030;13.812;2023-02-22T00:42:25;100274.31;;;10.55;69.84
21730;BME280;11027;51.030;13.812;2023-02-22T00:44:50;100274.31;;;10.55;69.98
21730;BME280;11027;51.030;13.812;2023-02-22T00:47:15;100279.75;;;10.55;70.11
21730;BME280;11027;51.030;13.812;2023-02-22T00:49:40;100283.53;;;10.54;69.99
21730;BME280;11027;51.030;13.812;2023-02-22T00:52:06;100281.13;;;10.51;70.28
21730;BME280;11027;51.030;13.812;2023-02-22T00:54:31;100270.41;;;10.50;70.43
21730;BME280;11027;51.030;13.812;2023-02-22T00:56:57;100279.75;;;10.55;70.38
21730;BME280;11027;51.030;13.812;2023-02-22T00:59:23;100278.53;;;10.58;70.24
21730;BME280;11027;51.030;13.812;2023-02-22T01:01:48;100280.25;;;10.59;70.13
21730;BME280;11027;51.030;13.812;2023-02-22T01:04:13;100273.97;;;10.58;70.14
21730;BME280;11027;51.030;13.812;2023-02-22T01:06:38;100274.31;;;10.55;70.18
21730;BME280;11027;51.030;13.812;2023-02-22T01:09:04;100271.63;;;10.47;70.59
21730;BME280;11027;51.030;13.812;2023-02-22T01:11:32;100270.94;;;10.45;70.54
21730;BME280;11027;51.030;13.812;2023-02-22T01:13:57;100271.13;;;10.44;70.67
21730;BME280;11027;51.030;13.812;2023-02-22T01:16:23;100273.69;;;10.45;70.78
21730;BME280;11027;51.030;13.812;2023-02-22T01:18:49;100277.25;;;10.46;70.55
21730;BME280;11027;51.030;13.812;2023-02-22T01:21:14;100276.19;;;10.55;70.52
21730;BME280;11027;51.030;13.812;2023-02-22T01:23:39;100274.81;;;10.59;70.34
21730;BME280;11027;51.030;13.812;2023-02-22T01:26:04;100276.97;;;10.64;70.49
21730;BME280;11027;51.030;13.812;2023-02-22T01:28:31;100267.44;;;10.68;70.29
21730;BME280;11027;51.030;13.812;2023-02-22T01:30:56;100269.13;;;10.69;70.04
21730;BME280;11027;51.030;13.812;2023-02-22T01:33:22;100268.75;;;10.72;70.09
21730;BME280;11027;51.030;13.812;2023-02-22T01:35:47;100261.94;;;10.76;70.13
21730;BME280;11027;51.030;13.812;2023-02-22T01:38:15;100268.22;;;10.76;70.09
21730;BME280;11027;51.030;13.812;2023-02-22T01:40:42;100273.50;;;10.78;69.91
21730;BME280;11027;51.030;13.812;2023-02-22T01:43:24;100270.47;;;10.73;70.01
21730;BME280;11027;51.030;13.812;2023-02-22T01:46:20;100265.06;;;10.65;69.99
21730;BME280;11027;51.030;13.812;2023-02-22T01:48:53;100266.25;;;10.62;70.01
21730;BME280;11027;51.030;13.812;2023-02-22T01:51:31;100264.75;;;10.59;70.33
21730;BME280;11027;51.030;13.812;2023-02-22T01:54:14;100266.25;;;10.62;70.25
21730;BME280;11027;51.030;13.812;2023-02-22T01:56:47;100263.06;;;10.58;70.11
21730;BME280;11027;51.030;13.812;2023-02-22T01:59:16;100259.47;;;10.58;70.25
21730;BME280;11027;51.030;13.812;2023-02-22T02:01:42;100255.56;;;10.60;70.10
21730;BME280;11027;51.030;13.812;2023-02-22T02:04:16;100261.00;;;10.60;70.13
21730;BME280;11027;51.030;13.812;2023-02-22T02:06:42;100257.63;;;10.58;70.17
21730;BME280;11027;51.030;13.812;2023-02-22T02:09:20;100254.69;;;10.60;70.29
21730;BME280;11027;51.030;13.812;2023-02-22T02:11:49;100255.84;;;10.66;70.07
21730;BME280;11027;51.030;13.812;2023-02-22T02:14:15;100254.84;;;10.67;69.91
21730;BME280;11027;51.030;13.812;2023-02-22T02:16:43;100252.78;;;10.69;69.99
21730;BME280;11027;51.030;13.812;2023-02-22T02:19:20;100256.34;;;10.69;69.98
21730;BME280;11027;51.030;13.812;2023-02-22T02:22:25;100244.41;;;10.70;69.99
21730;BME280;11027;51.030;13.812;2023-02-22T02:25:05;100246.78;;;10.73;69.79
21730;BME280;11027;51.030;13.812;2023-02-22T02:27:45;100241.50;;;10.72;69.92
21730;BME280;11027;51.030;13.812;2023-02-22T02:33:32;100242.00;;;10.75;69.76
21730;BME280;11027;51.030;13.812;2023-02-22T02:36:03;100239.94;;;10.77;69.66
21730;BME280;11027;51.030;13.812;2023-02-22T02:38:38;100231.94;;;10.76;69.80
21730;BME280;11027;51.030;13.812;2023-02-22T02:41:23;100228.22;;;10.77;69.71
21730;BME280;11027;51.030;13.812;2023-02-22T02:43:56;100239.13;;;10.77;69.80
21730;BME280;11027;51.030;13.812;2023-02-22T02:46:29;100235.34;;;10.78;69.80
21730;BME280;11027;51.030;13.812;2023-02-22T02:48:59;100231.94;;;10.76;70.01
21730;BME280;11027;51.030;13.812;2023-02-22T02:51:33;100228.56;;;10.74;69.98
21730;BME280;11027;51.030;13.812;2023-02-22T02:54:02;100228.56;;;10.74;69.92
21730;BME280;11027;51.030;13.812;2023-02-22T02:56:28;100232.50;;;10.71;70.31
21730;BME280;11027;51.030;13.812;2023-02-22T02:58:54;100237.28;;;10.69;70.16
21730;BME280;11027;51.030;13.812;2023-02-22T03:06:53;100225.16;;;10.72;70.13
21730;BME280;11027;51.030;13.812;2023-02-22T03:09:52;100229.78;;;10.71;70.23
21730;BME280;11027;51.030;13.812;2023-02-22T03:12:28;100228.94;;;10.71;70.19
21730;BME280;11027;51.030;13.812;2023-02-22T03:15:08;100224.50;;;10.70;70.01
21730;BME280;11027;51.030;13.812;2023-02-22T03:17:55;100225.53;;;10.69;70.31
21730;BME280;11027;51.030;13.812;2023-02-22T03:20:34;100218.38;;;10.68;70.32
21730;BME280;11027;51.030;13.812;2023-02-22T03:23:07;100219.59;;;10.65;70.35
21730;BME280;11027;51.030;13.812;2023-02-22T03:25:39;100220.44;;;10.66;70.19
21730;BME280;11027;51.030;13.812;2023-02-22T03:28:10;100223.16;;;10.66;70.42
21730;BME280;11027;51.030;13.812;2023-02-22T03:30:45;100217.53;;;10.67;70.35
21730;BME280;11027;51.030;13.812;2023-02-22T03:33:17;100217.53;;;10.67;70.24
21730;BME280;11027;51.030;13.812;2023-02-22T03:35:49;100219.22;;;10.68;70.33
21730;BME280;11027;51.030;13.812;2023-02-22T03:38:23;100220.09;;;10.69;70.46
21730;BME280;11027;51.030;13.812;2023-02-22T03:40:52;100215.66;;;10.68;70.26
21730;BME280;11027;51.030;13.812;2023-02-22T03:43:24;100217.72;;;10.66;70.27
21730;BME280;11027;51.030;13.812;2023-02-22T03:45:52;100218.75;;;10.65;70.43
21730;BME280;11027;51.030;13.812;2023-02-22T03:50:47;100214.16;;;10.65;70.46
21730;BME280;11027;51.030;13.812;2023-02-22T03:53:14;100215.16;;;10.64;70.54
21730;BME280;11027;51.030;13.812;2023-02-22T03:55:39;100210.75;;;10.63;70.50
21730;BME280;11027;51.030;13.812;2023-02-22T03:58:08;100210.59;;;10.65;70.56
21730;BME280;11027;51.030;13.812;2023-02-22T04:00:35;100211.59;;;10.64;70.40
21730;BME280;11027;51.030;13.812;2023-02-22T04:03:01;100207.19;;;10.63;70.53
21730;BME280;11027;51.030;13.812;2023-02-22T04:05:26;100200.19;;;10.60;70.64
21730;BME280;11027;51.030;13.812;2023-02-22T04:07:53;100208.59;;;10.58;70.55
21730;BME280;11027;51.030;13.812;2023-02-22T04:10:18;100202.63;;;10.55;70.63
21730;BME280;11027;51.030;13.812;2023-02-22T04:12:44;100200.81;;;10.47;70.66
21730;BME280;11027;51.030;13.812;2023-02-22T04:15:12;100207.13;;;10.39;70.78
21730;BME280;11027;51.030;13.812;2023-02-22T04:17:39;100198.00;;;10.32;70.97
21730;BME280;11027;51.030;13.812;2023-02-22T04:20:05;100207.03;;;10.25;70.90
21730;BME280;11027;51.030;13.812;2023-02-22T04:22:31;100209.41;;;10.19;71.29
21730;BME280;11027;51.030;13.812;2023-02-22T04:24:56;100210.13;;;10.13;71.66
21730;BME280;11027;51.030;13.812;2023-02-22T04:27:21;100202.00;;;10.05;71.67
21730;BME280;11027;51.030;13.812;2023-02-22T04:29:47;100199.28;;;10.05;71.75
21730;BME280;11027;51.030;13.812;2023-02-22T04:32:12;100202.38;;;10.02;72.22
21730;BME280;11027;51.030;13.812;2023-02-22T04:34:37;100199.31;;;9.97;72.22
21730;BME280;11027;51.030;13.812;2023-02-22T04:37:02;100199.16;;;9.90;72.52
21730;BME280;11027;51.030;13.812;2023-02-22T04:39:28;100203.59;;;9.83;72.64
21730;BME280;11027;51.030;13.812;2023-02-22T04:41:53;100201.41;;;9.78;72.93
21730;BME280;11027;51.030;13.812;2023-02-22T04:44:18;100203.78;;;9.73;73.01
21730;BME280;11027;51.030;13.812;2023-02-22T04:46:43;100200.41;;;9.71;73.31
21730;BME280;11027;51.030;13.812;2023-02-22T04:49:10;100213.00;;;9.72;73.45
21730;BME280;11027;51.030;13.812;2023-02-22T04:51:35;100201.41;;;9.78;73.28
21730;BME280;11027;51.030;13.812;2023-02-22T04:54:01;100199.00;;;9.84;73.16
21730;BME280;11027;51.030;13.812;2023-02-22T04:56:27;100196.97;;;9.86;73.04
21730;BME280;11027;51.030;13.812;2023-02-22T04:58:52;100193.22;;;9.87;72.96
21730;BME280;11027;51.030;13.812;2023-02-22T05:01:17;100202.22;;;9.87;73.11
21730;BME280;11027;51.030;13.812;2023-02-22T05:03:43;100205.81;;;9.88;73.29
21730;BME280;11027;51.030;13.812;2023-02-22T05:06:08;100208.88;;;9.85;73.27
21730;BME280;11027;51.030;13.812;2023-02-22T05:08:33;100201.72;;;9.84;73.49
21730;BME280;11027;51.030;13.812;2023-02-22T05:10:58;100201.56;;;9.85;73.48
21730;BME280;11027;51.030;13.812;2023-02-22T05:13:24;100211.06;;;9.89;73.47
21730;BME280;11027;51.030;13.812;2023-02-22T05:15:49;100202.19;;;9.95;73.55
21730;BME280;11027;51.030;13.812;2023-02-22T05:18:15;100204.75;;;9.97;73.33
21730;BME280;11027;51.030;13.812;2023-02-22T05:20:40;100211.91;;;9.98;73.27
21730;BME280;11027;51.030;13.812;2023-02-22T05:23:05;100204.59;;;9.98;73.49
21730;BME280;11027;51.030;13.812;2023-02-22T05:25:31;100204.75;;;9.97;73.45
21730;BME280;11027;51.030;13.812;2023-02-22T05:28:04;100208.16;;;9.99;73.54
21730;BME280;11027;51.030;13.812;2023-02-22T05:30:32;100202.69;;;9.99;73.50
21730;BME280;11027;51.030;13.812;2023-02-22T05:32:59;100204.41;;;10.00;73.56
21730;BME280;11027;51.030;13.812;2023-02-22T05:35:25;100202.38;;;10.02;73.68
21730;BME280;11027;51.030;13.812;2023-02-22T05:37:51;100205.75;;;10.04;73.52
21730;BME280;11027;51.030;13.812;2023-02-22T05:40:19;100201.66;;;10.08;73.46
21730;BME280;11027;51.030;13.812;2023-02-22T05:42:44;100204.56;;;10.07;73.40
21730;BME280;11027;51.030;13.812;2023-02-22T05:45:14;100199.66;;;10.02;73.48
21730;BME280;11027;51.030;13.812;2023-02-22T05:47:40;100206.47;;;9.98;73.64
21730;BME280;11027;51.030;13.812;2023-02-22T05:50:06;100204.25;;;9.93;74.08
21730;BME280;11027;51.030;13.812;2023-02-22T05:52:31;100201.72;;;9.92;74.12
21730;BME280;11027;51.030;13.812;2023-02-22T05:54:57;100208.53;;;9.88;74.14
21730;BME280;11027;51.030;13.812;2023-02-22T05:57:22;100203.44;;;9.85;74.43
21730;BME280;11027;51.030;13.812;2023-02-22T05:59:48;100207.00;;;9.85;74.35
21730;BME280;11027;51.030;13.812;2023-02-22T06:02:13;100209.88;;;9.84;74.48
21730;BME280;11027;51.030;13.812;2023-02-22T06:04:38;100206.66;;;9.88;74.51
21730;BME280;11027;51.030;13.812;2023-02-22T06:07:04;100204.44;;;9.92;74.23
21730;BME280;11027;51.030;13.812;2023-02-22T06:09:29;100210.91;;;9.91;74.26
21730;BME280;11027;51.030;13.812;2023-02-22T06:11:54;100206.28;;;9.91;74.29
21730;BME280;11027;51.030;13.812;2023-02-22T06:14:20;100215.50;;;9.90;74.45
21730;BME280;11027;51.030;13.812;2023-02-22T06:16:51;100211.25;;;9.88;74.50
21730;BME280;11027;51.030;13.812;2023-02-22T06:19:16;100215.00;;;9.87;74.45
21730;BME280;11027;51.030;13.812;2023-02-22T06:21:50;100211.44;;;9.86;74.58
21730;BME280;11027;51.030;13.812;2023-02-22T06:24:17;100218.75;;;9.86;74.42
21730;BME280;11027;51.030;13.812;2023-02-22T06:26:42;100222.81;;;9.81;74.58
21730;BME280;11027;51.030;13.812;2023-02-22T06:29:07;100215.31;;;9.84;74.89
21730;BME280;11027;51.030;13.812;2023-02-22T06:31:33;100212.44;;;9.85;74.84
21730;BME280;11027;51.030;13.812;2023-02-22T06:33:58;100218.75;;;9.86;74.75
21730;BME280;11027;51.030;13.812;2023-02-22T06:36:24;100214.50;;;9.83;74.83
21730;BME280;11027;51.030;13.812;2023-02-22T06:38:49;100223.84;;;9.80;74.91
21730;BME280;11027;51.030;13.812;2023-02-22T06:41:14;100224.88;;;9.79;74.84
21730;BME280;11027;51.030;13.812;2023-02-22T06:43:40;100227.25;;;9.82;74.93
21730;BME280;11027;51.030;13.812;2023-02-22T06:46:09;100221.09;;;9.89;74.77
21730;BME280;11027;51.030;13.812;2023-02-22T06:48:36;100236.44;;;9.90;74.68
21730;BME280;11027;51.030;13.812;2023-02-22T06:51:02;100241.50;;;9.93;74.78
21730;BME280;11027;51.030;13.812;2023-02-22T06:53:27;100232.34;;;9.94;75.00
21730;BME280;11027;51.030;13.812;2023-02-22T06:55:53;100234.69;;;9.97;75.03
21730;BME280;11027;51.030;13.812;2023-02-22T06:58:19;100239.13;;;9.98;75.10
21730;BME280;11027;51.030;13.812;2023-02-22T07:00:44;100235.03;;;10.02;74.96
21730;BME280;11027;51.030;13.812;2023-02-22T07:03:09;100236.38;;;10.06;74.94
21730;BME280;11027;51.030;13.812;2023-02-22T07:05:35;100238.72;;;10.09;74.67
21730;BME280;11027;51.030;13.812;2023-02-22T07:08:03;100243.16;;;10.10;74.71
21730;BME280;11027;51.030;13.812;2023-02-22T07:10:30;100233.63;;;10.14;74.38
21730;BME280;11027;51.030;13.812;2023-02-22T07:12:56;100243.97;;;10.19;74.17
21730;BME280;11027;51.030;13.812;2023-02-22T07:15:23;100240.91;;;10.22;74.36
21730;BME280;11027;51.030;13.812;2023-02-22T07:17:50;100242.41;;;10.25;74.25
21730;BME280;11027;51.030;13.812;2023-02-22T07:20:16;100244.78;;;10.28;74.45
21730;BME280;11027;51.030;13.812;2023-02-22T07:22:42;100242.41;;;10.33;74.37
21730;BME280;11027;51.030;13.812;2023-02-22T07:25:09;100249.19;;;10.37;74.09
21730;BME280;11027;51.030;13.812;2023-02-22T07:27:36;100248.50;;;10.43;74.16
21730;BME280;11027;51.030;13.812;2023-02-22T07:30:06;100252.56;;;10.47;73.85
21730;BME280;11027;51.030;13.812;2023-02-22T07:32:32;100251.16;;;10.51;74.32
21730;BME280;11027;51.030;13.812;2023-02-22T07:34:57;100248.78;;;10.56;73.76
21730;BME280;11027;51.030;13.812;2023-02-22T07:37:26;100248.41;;;10.59;73.68
21730;BME280;11027;51.030;13.812;2023-02-22T07:39:51;100255.19;;;10.64;73.48
21730;BME280;11027;51.030;13.812;2023-02-22T07:42:16;100256.53;;;10.68;73.39
21730;BME280;11027;51.030;13.812;2023-02-22T07:44:42;100258.91;;;10.71;73.19
21730;BME280;11027;51.030;13.812;2023-02-22T07:47:07;100253.25;;;10.72;73.33
21730;BME280;11027;51.030;13.812;2023-02-22T07:49:34;100251.41;;;10.73;73.14
21730;BME280;11027;51.030;13.812;2023-02-22T07:52:00;100251.56;;;10.71;73.29
21730;BME280;11027;51.030;13.812;2023-02-22T07:54:25;100251.41;;;10.73;73.13
21730;BME280;11027;51.030;13.812;2023-02-22T07:56:50;100250.72;;;10.71;72.98
21730;BME280;11027;51.030;13.812;2023-02-22T07:59:15;100250.53;;;10.72;73.33
21730;BME280;11027;51.030;13.812;2023-02-22T08:01:42;100247.81;;;10.72;73.01
21730;BME280;11027;51.030;13.812;2023-02-22T08:04:07;100244.06;;;10.73;73.18
21730;BME280;11027;51.030;13.812;2023-02-22T08:06:32;100241.50;;;10.72;73.11
21730;BME280;11027;51.030;13.812;2023-02-22T08:08:58;100237.78;;;10.73;73.07
21730;BME280;11027;51.030;13.812;2023-02-22T08:11:24;100238.78;;;10.72;73.06
21730;BME280;11027;51.030;13.812;2023-02-22T08:13:50;100247.81;;;10.72;73.17
21730;BME280;11027;51.030;13.812;2023-02-22T08:16:15;100246.28;;;10.70;73.12
21730;BME280;11027;51.030;13.812;2023-02-22T08:18:41;100241.50;;;10.72;72.96
21730;BME280;11027;51.030;13.812;2023-02-22T08:21:06;100246.63;;;10.75;72.99
21730;BME280;11027;51.030;13.812;2023-02-22T08:23:31;100242.00;;;10.75;73.03
21730;BME280;11027;51.030;13.812;2023-02-22T08:26:06;100245.22;;;10.79;72.73
21730;BME280;11027;51.030;13.812;2023-02-22T08:28:32;100247.59;;;10.82;72.71
21730;BME280;11027;51.030;13.812;2023-02-22T08:30:57;100240.06;;;10.84;72.63
21730;BME280;11027;51.030;13.812;2023-02-22T08:33:22;100242.28;;;10.89;72.58
21730;BME280;11027;51.030;13.812;2023-02-22T08:35:48;100241.66;;;11.01;72.26
21730;BME280;11027;51.030;13.812;2023-02-22T08:38:25;100244.31;;;11.10;72.08
21730;BME280;11027;51.030;13.812;2023-02-22T08:40:51;100238.16;;;11.16;72.00
21730;BME280;11027;51.030;13.812;2023-02-22T08:43:18;100240.44;;;11.27;71.86
21730;BME280;11027;51.030;13.812;2023-02-22T08:45:43;100239.63;;;11.41;71.48
21730;BME280;11027;51.030;13.812;2023-02-22T08:48:09;100234.94;;;11.50;71.63
21730;BME280;11027;51.030;13.812;2023-02-22T08:50:34;100236.38;;;11.61;71.15
21730;BME280;11027;51.030;13.812;2023-02-22T08:53:02;100233.94;;;11.66;71.21
21730;BME280;11027;51.030;13.812;2023-02-22T08:55:32;100233.94;;;11.66;70.75
21730;BME280;11027;51.030;13.812;2023-02-22T08:57:59;100233.75;;;11.68;70.78
21730;BME280;11027;51.030;13.812;2023-02-22T09:00:25;100236.19;;;11.77;70.63
21730;BME280;11027;51.030;13.812;2023-02-22T09:02:51;100235.94;;;11.87;70.73
21730;BME280;11027;51.030;13.812;2023-02-22T09:05:16;100234.00;;;11.96;70.43
21730;BME280;11027;51.030;13.812;2023-02-22T09:07:42;100229.28;;;12.05;70.29
21730;BME280;11027;51.030;13.812;2023-02-22T09:10:18;100230.69;;;12.15;69.98
21730;BME280;11027;51.030;13.812;2023-02-22T09:12:44;100230.59;;;12.24;69.96
21730;BME280;11027;51.030;13.812;2023-02-22T09:15:10;100226.44;;;12.28;69.62
21730;BME280;11027;51.030;13.812;2023-02-22T09:17:36;100221.44;;;12.31;69.56
21730;BME280;11027;51.030;13.812;2023-02-22T09:20:05;100228.69;;;12.39;69.46
21730;BME280;11027;51.030;13.812;2023-02-22T09:22:31;100224.13;;;12.46;68.90
21730;BME280;11027;51.030;13.812;2023-02-22T09:24:56;100228.22;;;12.50;68.83
21730;BME280;11027;51.030;13.812;2023-02-22T09:27:21;100229.41;;;12.63;68.80
21730;BME280;11027;51.030;13.812;2023-02-22T09:29:47;100232.38;;;12.68;68.57
21730;BME280;11027;51.030;13.812;2023-02-22T09:32:13;100227.97;;;12.67;68.39
21730;BME280;11027;51.030;13.812;2023-02-22T09:34:42;100226.84;;;12.61;67.83
21730;BME280;11027;51.030;13.812;2023-02-22T09:37:10;100227.03;;;12.59;67.86
21730;BME280;11027;51.030;13.812;2023-02-22T09:39:35;100220.91;;;12.57;67.70
21730;BME280;11027;51.030;13.812;2023-02-22T09:42:14;100218.84;;;12.59;67.56
21730;BME280;11027;51.030;13.812;2023-02-22T09:44:48;100213.53;;;12.73;67.34
21730;BME280;11027;51.030;13.812;2023-02-22T09:47:21;100217.44;;;12.85;67.43
21730;BME280;11027;51.030;13.812;2023-02-22T09:50:00;100210.09;;;12.86;67.13
21730;BME280;11027;51.030;13.812;2023-02-22T09:52:32;100203.50;;;12.80;66.38
21730;BME280;11027;51.030;13.812;2023-02-22T09:55:07;100203.13;;;12.83;65.93
21730;BME280;11027;51.030;13.812;2023-02-22T09:57:37;100205.91;;;12.90;66.13
21730;BME280;11027;51.030;13.812;2023-02-22T10:02:42;100203.38;;;13.10;66.11
21730;BME280;11027;51.030;13.812;2023-02-22T10:05:18;100190.22;;;13.20;65.62
21730;BME280;11027;51.030;13.812;2023-02-22T10:07:49;100195.53;;;13.28;65.63
21730;BME280;11027;51.030;13.812;2023-02-22T10:10:18;100188.84;;;13.31;65.52
21730;BME280;11027;51.030;13.812;2023-02-22T10:12:58;100191.41;;;13.32;65.39
21730;BME280;11027;51.030;13.812;2023-02-22T10:15:40;100187.22;;;13.36;65.49
21730;BME280;11027;51.030;13.812;2023-02-22T10:19:09;100174.38;;;13.37;65.31
21730;BME280;11027;51.030;13.812;2023-02-22T10:21:53;100182.16;;;13.33;64.74
21730;BME280;11027;51.030;13.812;2023-02-22T10:24:44;100185.53;;;13.35;64.82
21730;BME280;11027;51.030;13.812;2023-02-22T10:27:16;100188.78;;;13.46;64.84
21730;BME280;11027;51.030;13.812;2023-02-22T10:29:46;100186.06;;;13.52;64.38
21730;BME280;11027;51.030;13.812;2023-02-22T10:32:23;100184.03;;;13.61;64.02
21730;BME280;11027;51.030;13.812;2023-02-22T10:34:51;100181.13;;;13.69;63.91
21730;BME280;11027;51.030;13.812;2023-02-22T10:37:33;100185.81;;;13.75;63.58
21730;BME280;11027;51.030;13.812;2023-02-22T10:40:13;100173.19;;;13.81;63.33
21730;BME280;11027;51.030;13.812;2023-02-22T10:42:41;100176.38;;;13.85;63.00
21730;BME280;11027;51.030;13.812;2023-02-22T10:47:43;100163.97;;;13.89;62.48
21730;BME280;11027;51.030;13.812;2023-02-22T10:50:12;100171.53;;;13.80;61.95
21730;BME280;11027;51.030;13.812;2023-02-22T10:52:38;100170.44;;;13.74;61.73
21730;BME280;11027;51.030;13.812;2023-02-22T10:55:04;100168.97;;;13.78;61.35
21730;BME280;11027;51.030;13.812;2023-02-22T10:57:36;100164.78;;;13.83;61.03
21730;BME280;11027;51.030;13.812;2023-02-22T11:00:29;100167.78;;;13.88;60.84
21730;BME280;11027;51.030;13.812;2023-02-22T11:02:59;100156.66;;;13.96;60.62
21730;BME280;11027;51.030;13.812;2023-02-22T11:05:36;100159.22;;;14.04;60.20
21730;BME280;11027;51.030;13.812;2023-02-22T11:10:51;100145.38;;;14.19;59.59
21730;BME280;11027;51.030;13.812;2023-02-22T11:13:28;100142.44;;;14.20;59.38
21730;BME280;11027;51.030;13.812;2023-02-22T11:15:57;100144.34;;;14.27;59.40
21730;BME280;11027;51.030;13.812;2023-02-22T11:18:26;100138.44;;;14.30;58.93
21730;BME280;11027;51.030;13.812;2023-02-22T11:21:06;100135.94;;;14.28;59.02
21730;BME280;11027;51.030;13.812;2023-02-22T11:23:35;100137.16;;;14.26;58.84
21730;BME280;11027;51.030;13.812;2023-02-22T11:26:05;100132.31;;;14.28;59.01
21730;BME280;11027;51.030;13.812;2023-02-22T11:28:32;100134.25;;;14.34;58.93
21730;BME280;11027;51.030;13.812;2023-02-22T11:31:09;100133.84;;;14.37;58.68
21730;BME280;11027;51.030;13.812;2023-02-22T11:33:36;100131.94;;;14.37;58.90
21730;BME280;11027;51.030;13.812;2023-02-22T11:36:03;100127.09;;;14.39;58.55
21730;BME280;11027;51.030;13.812;2023-02-22T11:38:38;100124.78;;;14.43;58.61
21730;BME280;11027;51.030;13.812;2023-02-22T11:41:20;100121.22;;;14.43;57.66
21730;BME280;11027;51.030;13.812;2023-02-22T11:43:49;100124.16;;;14.41;57.88
21730;BME280;11027;51.030;13.812;2023-02-22T11:46:30;100119.50;;;14.35;57.49
21730;BME280;11027;51.030;13.812;2023-02-22T11:51:33;100109.81;;;14.39;57.49
21730;BME280;11027;51.030;13.812;2023-02-22T11:54:15;100109.81;;;14.39;57.17
21730;BME280;11027;51.030;13.812;2023-02-22T11:56:50;100111.09;;;14.43;56.66
21730;BME280;11027;51.030;13.812;2023-02-22T11:59:37;100105.63;;;14.50;56.43
21730;BME280;11027;51.030;13.812;2023-02-22T12:02:44;100104.41;;;14.59;56.36
21730;BME280;11027;51.030;13.812;2023-02-22T12:08:07;100099.78;;;14.73;55.83
21730;BME280;11027;51.030;13.812;2023-02-22T12:10:56;100099.34;;;14.76;55.77
21730;BME280;11027;51.030;13.812;2023-02-22T12:13:39;100096.41;;;14.77;55.12
21730;BME280;11027;51.030;13.812;2023-02-22T12:16:32;100102.31;;;14.74;54.55
21730;BME280;11027;51.030;13.812;2023-02-22T12:19:27;100094.06;;;14.68;54.04
21730;BME280;11027;51.030;13.812;2023-02-22T12:22:08;100093.88;;;14.69;54.47
21730;BME280;11027;51.030;13.812;2023-02-22T12:25:02;100090.94;;;14.71;54.20
21730;BME280;11027;51.030;13.812;2023-02-22T12:27:52;100087.75;;;14.74;54.34
21730;BME280;11027;51.030;13.812;2023-02-22T12:30:21;100081.22;;;14.75;54.38
21730;BME280;11027;51.030;13.812;2023-02-22T12:33:16;100081.22;;;14.75;53.76
21730;BME280;11027;51.030;13.812;2023-02-22T12:35:52;100084.19;;;14.67;53.52
21730;BME280;11027;51.030;13.812;2023-02-22T12:38:39;100083.31;;;14.59;53.70
21730;BME280;11027;51.030;13.812;2023-02-22T12:44:18;100086.19;;;14.38;53.76
21730;BME280;11027;51.030;13.812;2023-02-22T12:46:50;100082.81;;;14.36;54.17
21730;BME280;11027;51.030;13.812;2023-02-22T12:49:30;100080.06;;;14.36;54.23
21730;BME280;11027;51.030;13.812;2023-02-22T12:57:59;100074.38;;;14.31;54.70
21730;BME280;11027;51.030;13.812;2023-02-22T13:00:38;100074.38;;;14.31;54.70
21730;BME280;11027;51.030;13.812;2023-02-22T13:05:59;100065.53;;;14.42;54.96
21730;BME280;11027;51.030;13.812;2023-02-22T13:08:53;100073.13;;;14.40;54.75
21730;BME280;11027;51.030;13.812;2023-02-22T13:20:16;100066.84;;;14.46;54.78
21730;BME280;11027;51.030;13.812;2023-02-22T13:25:27;100056.72;;;14.53;54.55
21730;BME280;11027;51.030;13.812;2023-02-22T13:28:06;100062.19;;;14.53;54.24
21730;BME280;11027;51.030;13.812;2023-02-22T13:30:40;100066.00;;;14.52;54.19
21730;BME280;11027;51.030;13.812;2023-02-22T13:33:36;100067.47;;;14.55;54.35
21730;BME280;11027;51.030;13.812;2023-02-22T13:36:30;100062.66;;;14.64;54.83
21730;BME280;11027;51.030;13.812;2023-02-22T13:39:08;100060.53;;;14.66;54.52
21730;BME280;11027;51.030;13.812;2023-02-22T13:49:53;100054.59;;;14.55;54.40
21730;BME280;11027;51.030;13.812;2023-02-22T13:52:26;100049.75;;;14.51;54.57
21730;BME280;11027;51.030;13.812;2023-02-22T13:55:01;100056.69;;;14.40;54.67